createdAt,value
2024-03-24T00:00:09.632Z,6.48
2024-03-24T00:00:40.405Z,6.39
2024-03-24T00:01:11.227Z,6.42
2024-03-24T00:01:42.040Z,6.48
2024-03-24T00:02:12.821Z,6.52
2024-03-24T00:02:43.607Z,6.42
2024-03-24T00:03:14.408Z,6.41
2024-03-24T00:03:45.239Z,6.44
2024-03-24T00:04:16.030Z,6.42
2024-03-24T00:04:46.942Z,6.39
2024-03-24T00:05:17.842Z,6.34
2024-03-24T00:05:48.688Z,6.43
2024-03-24T00:06:19.575Z,6.45
2024-03-24T00:06:50.414Z,6.38
2024-03-24T00:07:21.217Z,6.31
2024-03-24T00:07:51.984Z,6.24
2024-03-24T00:08:22.832Z,6.31
2024-03-24T00:08:54.004Z,6.33
2024-03-24T00:09:25.235Z,6.26
2024-03-24T00:09:56.030Z,6.28
2024-03-24T00:10:26.867Z,6.30
2024-03-24T00:10:58.140Z,6.31
2024-03-24T00:11:28.955Z,6.28
2024-03-24T00:11:59.746Z,6.24
2024-03-24T00:12:30.778Z,6.21
2024-03-24T00:13:01.601Z,6.19
2024-03-24T00:13:32.430Z,6.21
2024-03-24T00:14:03.395Z,6.22
2024-03-24T00:14:34.230Z,6.23
2024-03-24T00:15:05.393Z,6.25
2024-03-24T00:15:36.269Z,6.21
2024-03-24T00:16:08.507Z,6.19
2024-03-24T00:16:39.360Z,6.18
2024-03-24T00:17:10.176Z,6.20
2024-03-24T00:17:40.956Z,6.18
2024-03-24T00:18:11.767Z,6.15
2024-03-24T00:18:42.607Z,6.21
2024-03-24T00:19:13.856Z,6.18
2024-03-24T00:19:44.655Z,6.08
2024-03-24T00:20:15.551Z,6.06
2024-03-24T00:20:46.360Z,6.06
2024-03-24T00:21:17.185Z,6.10
2024-03-24T00:21:47.993Z,6.13
2024-03-24T00:22:20.801Z,6.11
2024-03-24T00:22:51.640Z,6.09
2024-03-24T00:23:22.447Z,6.06
2024-03-24T00:23:53.259Z,6.07
2024-03-24T00:24:24.455Z,6.07
2024-03-24T00:24:55.239Z,6.01
2024-03-24T00:25:26.446Z,5.93
2024-03-24T00:25:57.315Z,5.93
2024-03-24T00:26:29.240Z,5.98
2024-03-24T00:27:00.686Z,6.02
2024-03-24T00:27:31.525Z,5.94
2024-03-24T00:28:03.139Z,5.98
2024-03-24T00:28:35.280Z,5.97
2024-03-24T00:29:06.099Z,5.97
2024-03-24T00:29:36.921Z,6.02
2024-03-24T00:30:09.254Z,6.02
2024-03-24T00:30:40.120Z,5.96
2024-03-24T00:31:10.948Z,5.97
2024-03-24T00:31:41.749Z,5.95
2024-03-24T00:32:12.555Z,5.99
2024-03-24T00:32:43.406Z,5.94
2024-03-24T00:33:14.589Z,5.95
2024-03-24T00:33:45.392Z,5.95
2024-03-24T00:34:16.748Z,5.92
2024-03-24T00:34:47.531Z,5.93
2024-03-24T00:35:18.839Z,5.83
2024-03-24T00:35:49.889Z,5.87
2024-03-24T00:36:20.863Z,5.89
2024-03-24T00:36:51.662Z,5.78
2024-03-24T00:37:22.449Z,5.78
2024-03-24T00:37:53.413Z,5.79
2024-03-24T00:38:24.212Z,5.74
2024-03-24T00:38:55.083Z,5.74
2024-03-24T00:39:26.012Z,5.76
2024-03-24T00:39:56.857Z,5.77
2024-03-24T00:40:27.750Z,5.72
2024-03-24T00:40:58.567Z,5.71
2024-03-24T00:41:29.370Z,5.73
2024-03-24T00:42:00.186Z,5.72
2024-03-24T00:42:30.971Z,5.66
2024-03-24T00:43:01.804Z,5.67
2024-03-24T00:43:33.538Z,5.72
2024-03-24T00:44:04.518Z,5.63
2024-03-24T00:44:35.352Z,5.69
2024-03-24T00:45:08.190Z,5.70
2024-03-24T00:45:38.974Z,5.71
2024-03-24T00:46:09.852Z,5.66
2024-03-24T00:46:40.690Z,5.68
2024-03-24T00:47:11.486Z,5.68
2024-03-24T00:47:42.292Z,5.72
2024-03-24T00:48:13.068Z,5.70
2024-03-24T00:48:43.862Z,5.73
2024-03-24T00:49:14.703Z,5.72
2024-03-24T00:49:45.718Z,5.65
2024-03-24T00:50:16.858Z,5.65
2024-03-24T00:50:47.830Z,5.70
2024-03-24T00:51:20.130Z,5.62
2024-03-24T00:51:50.982Z,5.63
2024-03-24T00:52:21.837Z,5.68
2024-03-24T00:52:52.696Z,5.66
2024-03-24T00:53:23.787Z,5.65
2024-03-24T00:53:54.664Z,5.67
2024-03-24T00:54:25.474Z,5.68
2024-03-24T00:54:56.250Z,5.67
2024-03-24T00:55:27.209Z,5.73
2024-03-24T00:55:58.074Z,5.73
2024-03-24T00:56:28.992Z,5.70
2024-03-24T00:56:59.799Z,5.72
2024-03-24T00:57:30.619Z,5.74
2024-03-24T00:58:01.526Z,5.79
2024-03-24T00:58:32.315Z,5.76
2024-03-24T00:59:03.150Z,5.75
2024-03-24T00:59:34.285Z,5.76
2024-03-24T01:00:06.814Z,5.72
2024-03-24T01:00:37.619Z,5.73
2024-03-24T01:01:08.429Z,5.72
2024-03-24T01:01:39.247Z,5.71
2024-03-24T01:02:10.024Z,5.72
2024-03-24T01:02:40.819Z,5.65
2024-03-24T01:03:11.774Z,5.71
2024-03-24T01:03:42.590Z,5.72
2024-03-24T01:04:13.423Z,5.65
2024-03-24T01:04:44.250Z,5.65
2024-03-24T01:05:15.119Z,5.61
2024-03-24T01:05:47.648Z,5.68
2024-03-24T01:06:18.442Z,5.69
2024-03-24T01:06:49.329Z,5.67
2024-03-24T01:07:20.190Z,5.66
2024-03-24T01:07:50.988Z,5.61
2024-03-24T01:08:21.783Z,5.66
2024-03-24T01:08:52.604Z,5.67
2024-03-24T01:09:23.453Z,5.66
2024-03-24T01:09:54.975Z,5.66
2024-03-24T01:10:25.851Z,5.70
2024-03-24T01:10:56.663Z,5.63
2024-03-24T01:11:27.469Z,5.68
2024-03-24T01:11:58.345Z,5.67
2024-03-24T01:12:29.177Z,5.72
2024-03-24T01:12:59.974Z,5.74
2024-03-24T01:13:30.802Z,5.77
2024-03-24T01:14:02.227Z,5.79
2024-03-24T01:14:33.218Z,5.78
2024-03-24T01:15:04.635Z,5.80
2024-03-24T01:15:35.443Z,5.78
2024-03-24T01:16:06.615Z,5.79
2024-03-24T01:16:37.455Z,5.79
2024-03-24T01:17:08.371Z,5.81
2024-03-24T01:17:42.100Z,5.79
2024-03-24T01:18:13.142Z,5.81
2024-03-24T01:18:44.997Z,5.76
2024-03-24T01:19:15.805Z,5.78
2024-03-24T01:19:46.592Z,5.74
2024-03-24T01:20:17.480Z,5.68
2024-03-24T01:20:48.362Z,5.70
2024-03-24T01:21:19.230Z,5.70
2024-03-24T01:21:50.028Z,5.73
2024-03-24T01:22:20.911Z,5.72
2024-03-24T01:22:52.197Z,5.70
2024-03-24T01:23:23.040Z,5.74
2024-03-24T01:23:53.877Z,5.72
2024-03-24T01:24:25.098Z,5.72
2024-03-24T01:24:55.884Z,5.73
2024-03-24T01:25:26.718Z,5.75
2024-03-24T01:25:57.569Z,5.76
2024-03-24T01:26:28.358Z,5.75
2024-03-24T01:26:59.197Z,5.69
2024-03-24T01:27:30.085Z,5.73
2024-03-24T01:28:00.911Z,5.71
2024-03-24T01:28:31.702Z,5.62
2024-03-24T01:29:02.675Z,5.58
2024-03-24T01:29:33.610Z,5.57
2024-03-24T01:30:05.002Z,5.59
2024-03-24T01:30:35.813Z,5.55
2024-03-24T01:31:06.608Z,5.59
2024-03-24T01:31:37.457Z,5.56
2024-03-24T01:32:08.339Z,5.55
2024-03-24T01:32:39.205Z,5.55
2024-03-24T01:33:10.014Z,5.56
2024-03-24T01:33:40.788Z,5.53
2024-03-24T01:34:11.658Z,5.55
2024-03-24T01:34:42.442Z,5.58
2024-03-24T01:35:14.039Z,5.58
2024-03-24T01:35:47.922Z,5.53
2024-03-24T01:36:18.739Z,5.44
2024-03-24T01:36:49.611Z,5.47
2024-03-24T01:37:20.459Z,5.51
2024-03-24T01:37:51.422Z,5.55
2024-03-24T01:38:22.195Z,5.56
2024-03-24T01:38:52.990Z,5.57
2024-03-24T01:39:23.952Z,5.57
2024-03-24T01:39:54.750Z,5.55
2024-03-24T01:40:25.556Z,5.57
2024-03-24T01:40:56.359Z,5.54
2024-03-24T01:41:28.306Z,5.54
2024-03-24T01:41:59.106Z,5.54
2024-03-24T01:42:30.100Z,5.58
2024-03-24T01:43:00.902Z,5.56
2024-03-24T01:43:31.686Z,5.55
2024-03-24T01:44:02.561Z,5.57
2024-03-24T01:44:33.408Z,5.55
2024-03-24T01:45:04.546Z,5.59
2024-03-24T01:45:35.398Z,5.58
2024-03-24T01:46:06.417Z,5.58
2024-03-24T01:46:37.336Z,5.55
2024-03-24T01:47:11.597Z,5.50
2024-03-24T01:47:42.432Z,5.59
2024-03-24T01:48:14.267Z,5.57
2024-03-24T01:48:45.146Z,5.61
2024-03-24T01:49:16.426Z,5.58
2024-03-24T01:49:47.369Z,5.48
2024-03-24T01:50:18.166Z,5.42
2024-03-24T01:50:49.970Z,5.47
2024-03-24T01:51:22.995Z,5.53
2024-03-24T01:51:53.970Z,5.51
2024-03-24T01:52:25.512Z,5.54
2024-03-24T01:52:56.519Z,5.58
2024-03-24T01:53:27.595Z,5.58
2024-03-24T01:53:59.048Z,5.50
2024-03-24T01:54:30.792Z,5.53
2024-03-24T01:55:01.974Z,5.57
2024-03-24T01:55:33.036Z,5.60
2024-03-24T01:56:05.016Z,5.61
2024-03-24T01:56:35.987Z,5.63
2024-03-24T01:57:06.967Z,5.68
2024-03-24T01:57:39.607Z,5.66
2024-03-24T01:58:10.568Z,5.69
2024-03-24T01:58:41.393Z,5.66
2024-03-24T01:59:13.227Z,5.72
2024-03-24T01:59:44.088Z,5.70
2024-03-24T02:00:15.886Z,5.68
2024-03-24T02:00:46.850Z,5.70
2024-03-24T02:01:17.768Z,5.71
2024-03-24T02:01:49.054Z,5.76
2024-03-24T02:02:19.895Z,5.74
2024-03-24T02:02:50.717Z,5.75
2024-03-24T02:03:21.588Z,5.71
2024-03-24T02:03:52.422Z,5.63
2024-03-24T02:04:23.320Z,5.68
2024-03-24T02:04:54.995Z,5.61
2024-03-24T02:05:27.036Z,5.65
2024-03-24T02:06:00.842Z,5.67
2024-03-24T02:06:31.794Z,5.62
2024-03-24T02:07:02.667Z,5.58
2024-03-24T02:07:33.619Z,5.51
2024-03-24T02:08:04.544Z,5.46
2024-03-24T02:08:36.016Z,5.40
2024-03-24T02:09:06.834Z,5.37
2024-03-24T02:09:38.147Z,5.39
2024-03-24T02:10:09.392Z,5.50
2024-03-24T02:10:40.261Z,5.45
2024-03-24T02:11:11.193Z,5.34
2024-03-24T02:11:42.742Z,5.30
2024-03-24T02:12:13.530Z,5.43
2024-03-24T02:12:44.650Z,5.51
2024-03-24T02:13:15.470Z,5.50
2024-03-24T02:13:46.284Z,5.58
2024-03-24T02:14:17.145Z,5.64
2024-03-24T02:14:47.950Z,5.62
2024-03-24T02:15:18.774Z,5.61
2024-03-24T02:15:53.595Z,5.63
2024-03-24T02:16:24.450Z,5.63
2024-03-24T02:16:55.239Z,5.60
2024-03-24T02:17:26.086Z,5.64
2024-03-24T02:18:00.524Z,5.63
2024-03-24T02:18:31.622Z,5.65
2024-03-24T02:19:03.941Z,5.66
2024-03-24T02:19:34.713Z,5.62
2024-03-24T02:20:06.422Z,5.57
2024-03-24T02:20:37.201Z,5.61
2024-03-24T02:21:08.034Z,5.67
2024-03-24T02:21:38.821Z,5.68
2024-03-24T02:22:09.631Z,5.65
2024-03-24T02:22:42.506Z,5.70
2024-03-24T02:23:13.469Z,5.69
2024-03-24T02:23:44.295Z,5.72
2024-03-24T02:24:15.094Z,5.75
2024-03-24T02:24:45.922Z,5.75
2024-03-24T02:25:16.829Z,5.75
2024-03-24T02:25:47.843Z,5.74
2024-03-24T02:26:18.767Z,5.73
2024-03-24T02:26:50.802Z,5.72
2024-03-24T02:27:21.672Z,5.70
2024-03-24T02:27:52.565Z,5.71
2024-03-24T02:28:23.373Z,5.69
2024-03-24T02:28:56.775Z,5.69
2024-03-24T02:29:27.568Z,5.65
2024-03-24T02:29:58.568Z,5.63
2024-03-24T02:30:29.375Z,5.58
2024-03-24T02:31:00.167Z,5.53
2024-03-24T02:31:30.976Z,5.56
2024-03-24T02:32:02.250Z,5.59
2024-03-24T02:32:33.069Z,5.50
2024-03-24T02:33:04.335Z,5.41
2024-03-24T02:33:35.237Z,5.46
2024-03-24T02:34:06.075Z,5.48
2024-03-24T02:34:36.936Z,5.51
2024-03-24T02:35:07.869Z,5.54
2024-03-24T02:35:42.170Z,5.56
2024-03-24T02:36:12.964Z,5.48
2024-03-24T02:36:43.802Z,5.45
2024-03-24T02:37:14.884Z,5.43
2024-03-24T02:37:45.679Z,5.45
2024-03-24T02:38:16.705Z,5.44
2024-03-24T02:38:47.538Z,5.39
2024-03-24T02:39:18.681Z,5.43
2024-03-24T02:39:49.490Z,5.40
2024-03-24T02:40:20.773Z,5.41
2024-03-24T02:40:51.569Z,5.46
2024-03-24T02:41:24.361Z,5.45
2024-03-24T02:41:55.148Z,5.43
2024-03-24T02:42:25.934Z,5.39
2024-03-24T02:42:56.717Z,5.36
2024-03-24T02:43:27.522Z,5.34
2024-03-24T02:43:58.332Z,5.30
2024-03-24T02:44:29.174Z,5.33
2024-03-24T02:44:59.976Z,5.33
2024-03-24T02:45:30.776Z,5.33
2024-03-24T02:46:02.090Z,5.20
2024-03-24T02:46:32.959Z,5.25
2024-03-24T02:47:03.962Z,5.25
2024-03-24T02:47:34.849Z,5.18
2024-03-24T02:48:05.994Z,5.20
2024-03-24T02:48:36.766Z,5.18
2024-03-24T02:49:08.416Z,5.18
2024-03-24T02:49:39.207Z,5.16
2024-03-24T02:50:10.089Z,5.24
2024-03-24T02:50:40.875Z,5.19
2024-03-24T02:51:13.081Z,5.18
2024-03-24T02:51:43.932Z,5.13
2024-03-24T02:52:15.144Z,5.12
2024-03-24T02:52:46.032Z,5.18
2024-03-24T02:53:17.906Z,5.14
2024-03-24T02:53:48.768Z,5.14
2024-03-24T02:54:19.606Z,5.15
2024-03-24T02:54:50.430Z,5.10
2024-03-24T02:55:24.438Z,5.04
2024-03-24T02:55:55.244Z,5.01
2024-03-24T02:56:26.052Z,4.94
2024-03-24T02:56:57.733Z,5.01
2024-03-24T02:57:28.611Z,5.02
2024-03-24T02:57:59.531Z,5.05
2024-03-24T02:58:30.444Z,5.01
2024-03-24T02:59:01.229Z,5.02
2024-03-24T02:59:32.264Z,5.01
2024-03-24T03:00:05.575Z,5.05
2024-03-24T03:00:36.474Z,5.05
2024-03-24T03:01:07.330Z,5.02
2024-03-24T03:01:38.239Z,5.00
2024-03-24T03:02:10.049Z,4.96
2024-03-24T03:02:40.890Z,5.04
2024-03-24T03:03:12.744Z,5.03
2024-03-24T03:03:45.673Z,4.99
2024-03-24T03:04:16.471Z,4.96
2024-03-24T03:04:47.312Z,4.95
2024-03-24T03:05:18.900Z,4.96
2024-03-24T03:05:49.722Z,4.91
2024-03-24T03:06:20.592Z,4.86
2024-03-24T03:06:53.326Z,4.87
2024-03-24T03:07:24.117Z,4.84
2024-03-24T03:07:54.913Z,4.91
2024-03-24T03:08:25.828Z,4.91
2024-03-24T03:08:56.759Z,4.92
2024-03-24T03:09:27.557Z,4.88
2024-03-24T03:09:58.466Z,4.88
2024-03-24T03:10:30.874Z,4.82
2024-03-24T03:11:02.028Z,4.89
2024-03-24T03:11:32.847Z,4.83
2024-03-24T03:12:04.043Z,4.69
2024-03-24T03:12:36.240Z,4.79
2024-03-24T03:13:07.065Z,4.78
2024-03-24T03:13:37.879Z,4.78
2024-03-24T03:14:08.912Z,4.81
2024-03-24T03:14:39.761Z,4.86
2024-03-24T03:15:15.214Z,4.86
2024-03-24T03:15:46.172Z,4.82
2024-03-24T03:16:17.009Z,4.80
2024-03-24T03:16:47.866Z,4.78
2024-03-24T03:17:18.655Z,4.85
2024-03-24T03:17:49.432Z,4.84
2024-03-24T03:18:20.860Z,4.84
2024-03-24T03:18:51.642Z,4.82
2024-03-24T03:19:22.464Z,4.81
2024-03-24T03:19:53.273Z,4.83
2024-03-24T03:20:24.351Z,4.80
2024-03-24T03:20:55.186Z,4.80
2024-03-24T03:21:26.055Z,4.75
2024-03-24T03:21:56.881Z,4.74
2024-03-24T03:22:27.802Z,4.77
2024-03-24T03:22:58.622Z,4.77
2024-03-24T03:23:29.498Z,4.78
2024-03-24T03:24:00.279Z,4.80
2024-03-24T03:24:31.133Z,4.76
2024-03-24T03:25:02.041Z,4.74
2024-03-24T03:25:33.820Z,4.76
2024-03-24T03:26:04.618Z,4.72
2024-03-24T03:26:35.668Z,4.64
2024-03-24T03:27:06.704Z,4.64
2024-03-24T03:27:37.918Z,4.66
2024-03-24T03:28:08.862Z,4.62
2024-03-24T03:28:39.664Z,4.59
2024-03-24T03:29:10.433Z,4.62
2024-03-24T03:29:41.608Z,4.70
2024-03-24T03:30:13.136Z,4.67
2024-03-24T03:30:44.060Z,4.67
2024-03-24T03:31:15.090Z,4.63
2024-03-24T03:31:45.949Z,4.68
2024-03-24T03:32:16.755Z,4.72
2024-03-24T03:32:47.549Z,4.66
2024-03-24T03:33:18.345Z,4.65
2024-03-24T03:33:49.234Z,4.60
2024-03-24T03:34:20.165Z,4.64
2024-03-24T03:34:52.141Z,4.66
2024-03-24T03:35:22.959Z,4.63
2024-03-24T03:35:53.741Z,4.59
2024-03-24T03:36:24.619Z,4.65
2024-03-24T03:36:55.465Z,4.61
2024-03-24T03:37:27.067Z,4.61
2024-03-24T03:37:57.894Z,4.63
2024-03-24T03:38:29.533Z,4.65
2024-03-24T03:39:00.351Z,4.66
2024-03-24T03:39:31.328Z,4.69
2024-03-24T03:40:02.215Z,4.65
2024-03-24T03:40:33.027Z,4.55
2024-03-24T03:41:05.832Z,4.60
2024-03-24T03:41:36.688Z,4.63
2024-03-24T03:42:08.371Z,4.66
2024-03-24T03:42:39.174Z,4.69
2024-03-24T03:43:10.825Z,4.65
2024-03-24T03:43:41.632Z,4.68
2024-03-24T03:44:12.435Z,4.64
2024-03-24T03:44:43.841Z,4.67
2024-03-24T03:45:16.003Z,4.59
2024-03-24T03:45:47.334Z,4.63
2024-03-24T03:46:18.113Z,4.58
2024-03-24T03:46:48.917Z,4.62
2024-03-24T03:47:22.341Z,4.60
2024-03-24T03:47:53.139Z,4.66
2024-03-24T03:48:24.272Z,4.65
2024-03-24T03:48:55.149Z,4.60
2024-03-24T03:49:25.931Z,4.64
2024-03-24T03:49:57.970Z,4.63
2024-03-24T03:50:33.995Z,4.65
2024-03-24T03:51:17.142Z,4.63
2024-03-24T03:51:56.324Z,4.67
2024-03-24T03:52:29.948Z,4.60
2024-03-24T03:53:01.880Z,4.66
2024-03-24T03:53:36.931Z,4.68
2024-03-24T03:54:10.370Z,4.67
2024-03-24T03:54:41.225Z,4.65
2024-03-24T03:55:12.088Z,4.66
2024-03-24T03:55:47.703Z,4.67
2024-03-24T03:56:18.495Z,4.58
2024-03-24T03:56:49.335Z,4.62
2024-03-24T03:57:20.492Z,4.61
2024-03-24T03:57:51.283Z,4.68
2024-03-24T03:58:22.082Z,4.64
2024-03-24T03:58:52.961Z,4.61
2024-03-24T03:59:24.535Z,4.67
2024-03-24T03:59:57.372Z,4.69
2024-03-24T04:00:28.206Z,4.74
2024-03-24T04:00:58.986Z,4.72
2024-03-24T04:01:29.804Z,4.68
2024-03-24T04:02:02.315Z,4.68
2024-03-24T04:02:33.121Z,4.69
2024-03-24T04:03:04.137Z,4.65
2024-03-24T04:03:35.294Z,4.61
2024-03-24T04:04:06.162Z,4.58
2024-03-24T04:04:37.343Z,4.58
2024-03-24T04:05:09.953Z,4.58
2024-03-24T04:05:42.034Z,4.61
2024-03-24T04:06:12.822Z,4.62
2024-03-24T04:06:43.614Z,4.59
2024-03-24T04:07:14.428Z,4.55
2024-03-24T04:07:45.294Z,4.56
2024-03-24T04:08:16.305Z,4.60
2024-03-24T04:08:47.149Z,4.60
2024-03-24T04:09:18.920Z,4.57
2024-03-24T04:09:49.770Z,4.59
2024-03-24T04:10:20.735Z,4.58
2024-03-24T04:10:51.538Z,4.60
2024-03-24T04:11:22.393Z,4.59
2024-03-24T04:11:53.210Z,4.54
2024-03-24T04:12:23.999Z,4.58
2024-03-24T04:12:55.591Z,4.58
2024-03-24T04:13:26.454Z,4.51
2024-03-24T04:13:57.294Z,4.54
2024-03-24T04:14:28.087Z,4.58
2024-03-24T04:15:00.075Z,4.52
2024-03-24T04:15:31.179Z,4.50
2024-03-24T04:16:05.306Z,4.53
2024-03-24T04:16:36.086Z,4.55
2024-03-24T04:17:06.987Z,4.50
2024-03-24T04:17:37.795Z,4.51
2024-03-24T04:18:08.596Z,4.49
2024-03-24T04:18:39.474Z,4.55
2024-03-24T04:19:10.437Z,4.58
2024-03-24T04:19:41.300Z,4.59
2024-03-24T04:20:12.443Z,4.60
2024-03-24T04:20:43.227Z,4.53
2024-03-24T04:21:15.091Z,4.56
2024-03-24T04:21:47.401Z,4.47
2024-03-24T04:22:18.726Z,4.50
2024-03-24T04:22:53.257Z,4.55
2024-03-24T04:23:24.242Z,4.62
2024-03-24T04:23:55.019Z,4.50
2024-03-24T04:24:25.806Z,4.50
2024-03-24T04:24:56.598Z,4.52
2024-03-24T04:25:27.510Z,4.57
2024-03-24T04:25:58.403Z,4.61
2024-03-24T04:26:29.182Z,4.62
2024-03-24T04:27:02.566Z,4.57
2024-03-24T04:27:35.096Z,4.55
2024-03-24T04:28:05.967Z,4.54
2024-03-24T04:28:36.782Z,4.56
2024-03-24T04:29:07.623Z,4.55
2024-03-24T04:29:38.515Z,4.52
2024-03-24T04:30:09.691Z,4.50
2024-03-24T04:30:40.654Z,4.50
2024-03-24T04:31:11.609Z,4.46
2024-03-24T04:31:42.887Z,4.50
2024-03-24T04:32:13.735Z,4.48
2024-03-24T04:32:44.618Z,4.49
2024-03-24T04:33:15.428Z,4.42
2024-03-24T04:33:46.595Z,4.37
2024-03-24T04:34:17.469Z,4.41
2024-03-24T04:34:48.274Z,4.43
2024-03-24T04:35:19.082Z,4.42
2024-03-24T04:35:50.027Z,4.47
2024-03-24T04:36:20.863Z,4.50
2024-03-24T04:36:51.648Z,4.52
2024-03-24T04:37:23.010Z,4.49
2024-03-24T04:37:54.394Z,4.51
2024-03-24T04:38:25.262Z,4.47
2024-03-24T04:38:56.779Z,4.46
2024-03-24T04:39:29.468Z,4.49
2024-03-24T04:40:00.328Z,4.47
2024-03-24T04:40:31.309Z,4.46
2024-03-24T04:41:02.160Z,4.43
2024-03-24T04:41:34.088Z,4.49
2024-03-24T04:42:04.993Z,4.50
2024-03-24T04:42:36.053Z,4.48
2024-03-24T04:43:07.739Z,4.47
2024-03-24T04:43:38.561Z,4.43
2024-03-24T04:44:09.370Z,4.40
2024-03-24T04:44:40.595Z,4.39
2024-03-24T04:45:11.627Z,4.44
2024-03-24T04:45:46.700Z,4.40
2024-03-24T04:46:17.663Z,4.37
2024-03-24T04:46:48.791Z,4.32
2024-03-24T04:47:19.935Z,4.36
2024-03-24T04:47:51.257Z,4.36
2024-03-24T04:48:22.108Z,4.36
2024-03-24T04:48:52.897Z,4.33
2024-03-24T04:49:23.809Z,4.31
2024-03-24T04:49:55.158Z,4.30
2024-03-24T04:50:27.266Z,4.37
2024-03-24T04:50:58.224Z,4.33
2024-03-24T04:51:29.629Z,4.27
2024-03-24T04:52:00.418Z,4.24
2024-03-24T04:52:31.378Z,4.22
2024-03-24T04:53:03.479Z,4.31
2024-03-24T04:53:34.373Z,4.27
2024-03-24T04:54:05.821Z,4.28
2024-03-24T04:54:36.666Z,4.30
2024-03-24T04:55:07.940Z,4.34
2024-03-24T04:55:38.734Z,4.30
2024-03-24T04:56:10.902Z,4.31
2024-03-24T04:56:41.777Z,4.30
2024-03-24T04:57:12.659Z,4.29
2024-03-24T04:57:43.449Z,4.26
2024-03-24T04:58:14.550Z,4.22
2024-03-24T04:58:45.403Z,4.27
2024-03-24T04:59:16.172Z,4.26
2024-03-24T04:59:46.955Z,4.29
2024-03-24T05:00:18.559Z,4.25
2024-03-24T05:00:49.347Z,4.25
2024-03-24T05:01:20.145Z,4.26
2024-03-24T05:01:50.950Z,4.30
2024-03-24T05:02:21.882Z,4.33
2024-03-24T05:02:52.919Z,4.35
2024-03-24T05:03:24.304Z,4.36
2024-03-24T05:03:55.325Z,4.38
2024-03-24T05:04:26.279Z,4.39
2024-03-24T05:04:57.067Z,4.35
2024-03-24T05:05:28.001Z,4.38
2024-03-24T05:05:58.786Z,4.38
2024-03-24T05:06:30.568Z,4.32
2024-03-24T05:07:02.340Z,4.32
2024-03-24T05:07:33.158Z,4.32
2024-03-24T05:08:04.514Z,4.37
2024-03-24T05:08:37.163Z,4.26
2024-03-24T05:09:10.959Z,4.29
2024-03-24T05:09:42.184Z,4.30
2024-03-24T05:10:12.992Z,4.29
2024-03-24T05:10:43.857Z,4.30
2024-03-24T05:11:14.694Z,4.33
2024-03-24T05:11:45.705Z,4.31
2024-03-24T05:12:16.520Z,4.37
2024-03-24T05:12:47.633Z,4.33
2024-03-24T05:13:18.905Z,4.31
2024-03-24T05:13:49.819Z,4.25
2024-03-24T05:14:20.683Z,4.26
2024-03-24T05:14:51.510Z,4.30
2024-03-24T05:15:22.369Z,4.27
2024-03-24T05:15:53.466Z,4.28
2024-03-24T05:16:26.939Z,4.28
2024-03-24T05:16:58.485Z,4.23
2024-03-24T05:17:29.314Z,4.22
2024-03-24T05:18:00.662Z,4.23
2024-03-24T05:18:31.453Z,4.27
2024-03-24T05:19:06.790Z,4.17
2024-03-24T05:19:37.608Z,4.16
2024-03-24T05:20:09.640Z,4.13
2024-03-24T05:20:40.421Z,4.18
2024-03-24T05:21:11.614Z,4.17
2024-03-24T05:21:43.694Z,4.16
2024-03-24T05:22:15.902Z,4.19
2024-03-24T05:22:47.215Z,4.13
2024-03-24T05:23:19.570Z,4.10
2024-03-24T05:23:51.430Z,4.14
2024-03-24T05:24:22.254Z,4.16
2024-03-24T05:24:53.953Z,4.18
2024-03-24T05:25:24.839Z,4.16
2024-03-24T05:25:55.683Z,4.17
2024-03-24T05:26:26.508Z,4.17
2024-03-24T05:26:57.405Z,4.18
2024-03-24T05:27:29.700Z,4.17
2024-03-24T05:28:00.582Z,4.20
2024-03-24T05:28:35.694Z,4.18
2024-03-24T05:29:13.159Z,4.19
2024-03-24T05:29:43.963Z,4.21
2024-03-24T05:30:14.905Z,4.24
2024-03-24T05:30:51.761Z,4.26
2024-03-24T05:31:22.599Z,4.26
2024-03-24T05:31:57.237Z,4.30
2024-03-24T05:32:28.137Z,4.34
2024-03-24T05:32:58.938Z,4.37
2024-03-24T05:33:29.842Z,4.23
2024-03-24T05:34:00.746Z,4.25
2024-03-24T05:34:31.567Z,4.22
2024-03-24T05:35:02.459Z,4.22
2024-03-24T05:35:33.258Z,4.26
2024-03-24T05:36:04.493Z,4.35
2024-03-24T05:36:35.299Z,4.33
2024-03-24T05:37:06.103Z,4.30
2024-03-24T05:37:38.010Z,4.31
2024-03-24T05:38:09.223Z,4.35
2024-03-24T05:38:40.083Z,4.32
2024-03-24T05:39:10.864Z,4.32
2024-03-24T05:39:41.656Z,4.38
2024-03-24T05:40:15.089Z,4.38
2024-03-24T05:40:45.882Z,4.29
2024-03-24T05:41:17.257Z,4.35
2024-03-24T05:41:49.198Z,4.42
2024-03-24T05:42:19.969Z,4.46
2024-03-24T05:42:51.301Z,4.49
2024-03-24T05:43:22.142Z,4.45
2024-03-24T05:43:52.983Z,4.47
2024-03-24T05:44:23.767Z,4.50
2024-03-24T05:44:54.797Z,4.47
2024-03-24T05:45:25.612Z,4.47
2024-03-24T05:45:57.095Z,4.49
2024-03-24T05:46:27.904Z,4.56
2024-03-24T05:46:58.810Z,4.53
2024-03-24T05:47:32.890Z,4.57
2024-03-24T05:48:04.086Z,4.56
2024-03-24T05:48:34.942Z,4.60
2024-03-24T05:49:05.739Z,4.63
2024-03-24T05:49:36.914Z,4.56
2024-03-24T05:50:08.206Z,4.58
2024-03-24T05:50:39.333Z,4.68
2024-03-24T05:51:10.123Z,4.67
2024-03-24T05:51:41.060Z,4.64
2024-03-24T05:52:11.838Z,4.62
2024-03-24T05:52:42.894Z,4.64
2024-03-24T05:53:13.732Z,4.59
2024-03-24T05:53:44.515Z,4.54
2024-03-24T05:54:15.318Z,4.53
2024-03-24T05:54:46.184Z,4.54
2024-03-24T05:55:17.108Z,4.56
2024-03-24T05:55:48.219Z,4.47
2024-03-24T05:56:19.022Z,4.47
2024-03-24T05:56:50.829Z,4.50
2024-03-24T05:57:21.674Z,4.43
2024-03-24T05:57:52.662Z,4.44
2024-03-24T05:58:23.836Z,4.43
2024-03-24T05:58:54.687Z,4.47
2024-03-24T05:59:25.594Z,4.51
2024-03-24T05:59:56.530Z,4.54
2024-03-24T06:00:27.326Z,4.51
2024-03-24T06:01:02.119Z,4.48
2024-03-24T06:01:33.204Z,4.49
2024-03-24T06:02:04.141Z,4.55
2024-03-24T06:02:35.027Z,4.58
2024-03-24T06:03:05.832Z,4.51
2024-03-24T06:03:36.673Z,4.55
2024-03-24T06:04:07.450Z,4.47
2024-03-24T06:04:38.348Z,4.51
2024-03-24T06:05:09.666Z,4.55
2024-03-24T06:05:41.489Z,4.50
2024-03-24T06:06:12.310Z,4.58
2024-03-24T06:06:43.116Z,4.52
2024-03-24T06:07:13.908Z,4.56
2024-03-24T06:07:45.049Z,4.56
2024-03-24T06:08:15.830Z,4.61
2024-03-24T06:08:46.678Z,4.62
2024-03-24T06:09:17.553Z,4.62
2024-03-24T06:09:48.856Z,4.60
2024-03-24T06:10:19.750Z,4.59
2024-03-24T06:10:50.621Z,4.61
2024-03-24T06:11:22.435Z,4.66
2024-03-24T06:11:53.205Z,4.67
2024-03-24T06:12:24.006Z,4.71
2024-03-24T06:12:55.216Z,4.72
2024-03-24T06:13:26.193Z,4.76
2024-03-24T06:13:57.021Z,4.76
2024-03-24T06:14:27.839Z,4.74
2024-03-24T06:14:58.643Z,4.73
2024-03-24T06:15:29.888Z,4.76
2024-03-24T06:16:03.694Z,4.77
2024-03-24T06:16:34.473Z,4.80
2024-03-24T06:17:06.989Z,4.80
2024-03-24T06:17:38.291Z,4.71
2024-03-24T06:18:09.639Z,4.69
2024-03-24T06:18:40.473Z,4.77
2024-03-24T06:19:14.220Z,4.73
2024-03-24T06:19:45.354Z,4.71
2024-03-24T06:20:16.206Z,4.68
2024-03-24T06:20:47.032Z,4.69
2024-03-24T06:21:17.829Z,4.67
2024-03-24T06:21:53.246Z,4.72
2024-03-24T06:22:24.154Z,4.81
2024-03-24T06:22:54.939Z,4.68
2024-03-24T06:23:26.174Z,4.77
2024-03-24T06:23:56.956Z,4.77
2024-03-24T06:24:27.747Z,4.76
2024-03-24T06:24:58.582Z,4.78
2024-03-24T06:25:30.422Z,4.74
2024-03-24T06:26:01.274Z,4.74
2024-03-24T06:26:32.076Z,4.77
2024-03-24T06:27:03.023Z,4.79
2024-03-24T06:27:34.125Z,4.79
2024-03-24T06:28:05.345Z,4.80
2024-03-24T06:28:36.120Z,4.80
2024-03-24T06:29:06.907Z,4.82
2024-03-24T06:29:37.701Z,4.81
2024-03-24T06:30:08.753Z,4.83
2024-03-24T06:30:41.121Z,4.91
2024-03-24T06:31:11.929Z,4.87
2024-03-24T06:31:46.298Z,4.93
2024-03-24T06:32:17.495Z,4.94
2024-03-24T06:32:48.787Z,4.93
2024-03-24T06:33:19.599Z,4.91
2024-03-24T06:33:50.391Z,4.90
2024-03-24T06:34:21.332Z,4.96
2024-03-24T06:34:52.131Z,4.99
2024-03-24T06:35:23.297Z,5.01
2024-03-24T06:35:54.116Z,5.05
2024-03-24T06:36:24.935Z,5.03
2024-03-24T06:36:55.859Z,5.02
2024-03-24T06:37:26.755Z,5.10
2024-03-24T06:37:57.550Z,5.00
2024-03-24T06:38:28.351Z,5.07
2024-03-24T06:38:59.679Z,4.96
2024-03-24T06:39:30.499Z,4.96
2024-03-24T06:40:01.310Z,4.99
2024-03-24T06:40:32.113Z,4.96
2024-03-24T06:41:03.015Z,4.87
2024-03-24T06:41:38.983Z,4.93
2024-03-24T06:42:09.920Z,4.86
2024-03-24T06:42:59.398Z,4.86
2024-03-24T06:43:41.889Z,4.88
2024-03-24T06:44:17.303Z,4.91
2024-03-24T06:44:51.412Z,4.97
2024-03-24T06:45:28.507Z,4.89
2024-03-24T06:45:59.281Z,4.88
2024-03-24T06:46:30.109Z,4.88
2024-03-24T06:47:01.031Z,4.92
2024-03-24T06:47:31.923Z,4.95
2024-03-24T06:48:04.439Z,4.94
2024-03-24T06:48:35.581Z,4.96
2024-03-24T06:49:06.650Z,5.03
2024-03-24T06:49:37.870Z,4.97
2024-03-24T06:50:08.865Z,5.01
2024-03-24T06:50:39.699Z,4.96
2024-03-24T06:51:10.732Z,5.00
2024-03-24T06:51:41.526Z,4.97
2024-03-24T06:52:12.323Z,5.03
2024-03-24T06:52:43.131Z,5.09
2024-03-24T06:53:15.112Z,5.12
2024-03-24T06:53:45.874Z,5.17
2024-03-24T06:54:17.184Z,5.15
2024-03-24T06:54:49.900Z,5.21
2024-03-24T06:55:20.829Z,5.24
2024-03-24T06:55:52.102Z,5.30
2024-03-24T06:56:23.073Z,5.32